Time;durP1;ratioP1;P1;durP2;ratioP2;P2;SDS_P1;SDS_P2;PMS_P1;PMS_P2;Temp;Humidity;BMP_temperature;BMP_pressure;BME280_temperature;BME280_humidity;BME280_pressure;Samples;Min_cycle;Max_cycle;Signal;HPM_P1;HPM_P2
2022/01/02 00:01:00;;;;;;;9.03;4.17;;;;;;;12.61;63.78;101319.19;5382783;32;34285;-62
2022/01/02 00:04:04;;;;;;;10.57;4.37;;;;;;;12.10;66.02;101323.41;5402647;32;35009;-61
2022/01/02 00:07:08;;;;;;;10.90;4.45;;;;;;;12.52;65.24;101320.38;5372413;32;34202;-61
2022/01/02 00:10:12;;;;;;;10.47;3.97;;;;;;;11.76;67.69;101320.91;5384966;32;34416;-61
2022/01/02 00:13:20;;;;;;;9.93;4.40;;;;;;;12.35;65.31;101314.75;5393909;32;34409;-62
2022/01/02 00:16:25;;;;;;;11.93;3.90;;;;;;;12.01;67.10;101321.06;5360977;32;33438;-67
2022/01/02 00:19:30;;;;;;;10.18;4.15;;;;;;;12.03;67.03;101315.75;5385820;32;33680;-61
2022/01/02 00:22:36;;;;;;;11.37;4.33;;;;;;;12.39;65.80;101309.34;5366040;32;36404;-64
2022/01/02 00:25:42;;;;;;;10.77;4.50;;;;;;;12.81;63.97;101311.47;5364340;32;33491;-61
2022/01/02 00:28:48;;;;;;;10.03;4.67;;;;;;;12.77;63.67;101317.78;5380559;32;34570;-68
2022/01/02 00:31:53;;;;;;;8.33;4.27;;;;;;;12.83;63.16;101317.59;5379757;32;35507;-67
2022/01/02 00:34:56;;;;;;;9.33;4.67;;;;;;;12.69;63.34;101318.03;5361737;32;32839;-62
2022/01/02 00:38:00;;;;;;;9.67;4.97;;;;;;;12.92;63.02;101326.94;5372707;32;32880;-62
2022/01/02 00:41:03;;;;;;;8.93;4.47;;;;;;;12.82;63.02;101333.47;5374574;32;34122;-68
2022/01/02 00:44:22;;;;;;;9.40;4.40;;;;;;;13.08;62.25;101325.53;5347690;32;34889;-61
2022/01/02 00:47:45;;;;;;;10.20;4.50;;;;;;;13.01;62.11;101330.16;5384181;32;34168;-67
2022/01/02 00:50:52;;;;;;;11.27;5.33;;;;;;;13.23;61.62;101340.00;5379245;32;32938;-69
2022/01/02 00:53:58;;;;;;;10.33;5.27;;;;;;;12.93;62.33;101326.03;5383823;32;34326;-62
2022/01/02 00:57:05;;;;;;;10.07;4.50;;;;;;;13.04;62.18;101333.59;5366243;32;34492;-67
2022/01/02 01:00:14;;;;;;;10.27;4.90;;;;;;;12.94;62.25;101333.88;5382237;32;33275;-61
2022/01/02 01:03:30;;;;;;;16.30;5.30;;;;;;;12.59;63.33;101323.66;5377421;32;33246;-67
2022/01/02 01:06:33;;;;;;;13.97;5.20;;;;;;;12.53;63.29;101334.41;5360602;32;34474;-60
2022/01/02 01:09:36;;;;;;;13.88;5.78;;;;;;;12.23;64.27;101331.81;5379949;32;35186;-62
2022/01/02 01:12:40;;;;;;;11.40;5.47;;;;;;;12.38;63.86;101331.34;5370385;32;33329;-67
2022/01/02 01:15:43;;;;;;;11.33;5.93;;;;;;;12.37;63.92;101324.38;5385285;32;34027;-67
2022/01/02 01:18:45;;;;;;;9.63;4.90;;;;;;;12.45;63.59;101324.97;5380812;32;34405;-62
2022/01/02 01:21:50;;;;;;;13.33;5.63;;;;;;;12.46;63.60;101324.06;5364738;32;34080;-62
2022/01/02 01:24:53;;;;;;;12.13;5.33;;;;;;;12.14;64.45;101326.84;5352396;32;34840;-62
2022/01/02 01:27:55;;;;;;;10.27;5.13;;;;;;;12.25;64.18;101314.19;5397785;32;34167;-67
2022/01/02 01:30:58;;;;;;;11.88;5.03;;;;;;;12.61;62.93;101321.81;5368426;32;34079;-66
2022/01/02 01:34:00;;;;;;;13.20;5.70;;;;;;;12.86;62.13;101316.59;5358666;32;34055;-61
2022/01/02 01:37:03;;;;;;;11.83;6.33;;;;;;;12.79;62.32;101321.22;5386352;32;34955;-66
2022/01/02 01:40:09;;;;;;;9.55;5.12;;;;;;;12.70;62.73;101319.75;5350225;32;34719;-60
2022/01/02 01:43:14;;;;;;;9.53;5.10;;;;;;;12.82;62.69;101315.00;5374432;32;34102;-66
2022/01/02 01:46:17;;;;;;;11.70;4.97;;;;;;;12.72;62.92;101317.06;5372448;32;33296;-61
2022/01/02 01:49:29;;;;;;;11.65;5.53;;;;;;;12.35;63.90;101314.75;5377234;32;35014;-66
2022/01/02 01:52:33;;;;;;;12.63;5.20;;;;;;;12.66;63.19;101312.84;5365015;32;33576;-61
2022/01/02 01:55:37;;;;;;;11.57;5.37;;;;;;;12.40;64.09;101316.34;5387683;32;35961;-67
2022/01/02 01:58:40;;;;;;;13.03;5.23;;;;;;;12.45;63.75;101314.44;5369180;32;35395;-62
2022/01/02 02:01:44;;;;;;;9.32;4.72;;;;;;;12.36;63.83;101309.44;5375588;32;32896;-61
2022/01/02 02:04:47;;;;;;;10.27;4.93;;;;;;;12.43;63.98;101313.62;5388700;32;35004;-62
2022/01/02 02:07:50;;;;;;;11.07;5.50;;;;;;;12.01;65.28;101305.28;5388756;32;34419;-63
2022/01/02 02:10:57;;;;;;;13.13;5.12;;;;;;;11.80;66.42;101308.53;5388170;32;35344;-61
2022/01/02 02:14:00;;;;;;;11.17;5.43;;;;;;;11.75;66.87;101306.00;5360814;32;33968;-67
2022/01/02 02:17:03;;;;;;;10.40;5.07;;;;;;;11.88;66.07;101302.13;5373775;32;33735;-68
2022/01/02 02:20:15;;;;;;;11.50;5.60;;;;;;;10.82;70.40;101317.34;5382219;32;32457;-61
2022/01/02 02:23:17;;;;;;;10.93;5.60;;;;;;;11.55;68.57;101311.00;5381006;32;34234;-61
2022/01/02 02:26:20;;;;;;;10.67;5.00;;;;;;;11.47;67.88;101320.88;5361274;32;34129;-62
2022/01/02 02:29:22;;;;;;;12.80;5.40;;;;;;;11.88;66.22;101298.66;5368560;32;33124;-67
2022/01/02 02:32:25;;;;;;;11.37;5.37;;;;;;;11.78;66.27;101305.03;5355653;32;35557;-61
2022/01/02 02:35:30;;;;;;;10.63;5.65;;;;;;;11.82;66.09;101304.09;5391647;32;35293;-67
2022/01/02 02:38:32;;;;;;;13.47;6.03;;;;;;;11.83;66.00;101303.19;5387917;32;34091;-61
2022/01/02 02:41:37;;;;;;;10.77;5.57;;;;;;;11.83;65.50;101309.31;5379353;32;34327;-67
2022/01/02 02:44:40;;;;;;;11.90;6.17;;;;;;;11.69;65.85;101295.66;5388610;32;36190;-61
2022/01/02 02:51:06;;;;;;;11.57;5.80;;;;;;;11.82;65.66;101290.94;5386017;32;34122;-67
2022/01/02 02:54:10;;;;;;;12.10;6.00;;;;;;;12.27;63.82;101290.41;5389958;32;32982;-62
2022/01/02 02:57:13;;;;;;;12.43;5.53;;;;;;;11.34;66.87;101305.44;5391330;32;34016;-68
2022/01/02 03:00:16;;;;;;;10.23;5.70;;;;;;;11.54;66.23;101290.84;5365382;32;35239;-61
2022/01/02 03:03:19;;;;;;;11.63;6.30;;;;;;;11.35;66.86;101288.72;5367393;32;33055;-62
2022/01/02 03:06:22;;;;;;;;;;;;;;;11.12;67.69;101296.38;5365274;32;33791;-64
2022/01/02 03:09:46;;;;;;;11.33;5.50;;;;;;;11.46;66.82;101298.06;5401863;32;35629;-61
2022/01/02 03:12:49;;;;;;;;;;;;;;;11.54;66.24;101285.59;5369439;32;34216;-61
2022/01/02 03:15:52;;;;;;;13.63;6.00;;;;;;;11.42;66.50;101292.06;5387811;32;34939;-67
2022/01/02 03:18:54;;;;;;;11.95;5.87;;;;;;;11.22;67.03;101289.97;5357787;32;34245;-62
2022/01/02 03:21:58;;;;;;;;;;;;;;;10.99;67.97;101292.34;5384543;32;36024;-67
2022/01/02 03:25:00;;;;;;;12.13;6.07;;;;;;;10.97;68.28;101286.28;5387913;32;34288;-61
2022/01/02 03:28:03;;;;;;;13.00;5.78;;;;;;;11.15;67.53;101279.66;5386031;32;36080;-66
2022/01/02 03:31:07;;;;;;;11.68;5.85;;;;;;;11.06;67.46;101283.38;5367464;32;34184;-67
2022/01/02 03:34:10;;;;;;;12.77;6.40;;;;;;;11.05;67.42;101277.25;5379336;32;34960;-68
2022/01/02 03:37:13;;;;;;;12.20;5.90;;;;;;;10.83;68.35;101276.12;5344091;32;35494;-61
2022/01/02 03:40:15;;;;;;;14.10;6.70;;;;;;;10.71;68.93;101279.94;5354686;32;34220;-61
2022/01/02 03:43:20;;;;;;;12.37;6.47;;;;;;;11.11;67.50;101265.72;5385576;32;33287;-62
2022/01/02 03:46:23;;;;;;;12.90;6.27;;;;;;;10.89;68.06;101264.59;5349049;32;33006;-67
2022/01/02 03:49:26;;;;;;;13.30;6.95;;;;;;;11.01;67.59;101265.13;5371447;32;34155;-67
2022/01/02 03:52:29;;;;;;;12.95;5.90;;;;;;;11.15;67.42;101258.62;5347438;32;32817;-67
2022/01/02 03:55:33;;;;;;;15.60;6.43;;;;;;;11.48;66.48;101254.16;5371084;32;34682;-66
2022/01/02 03:58:35;;;;;;;;;;;;;;;11.42;66.51;101254.34;5376107;32;33090;-67
2022/01/02 04:01:38;;;;;;;11.90;6.67;;;;;;;11.58;65.18;101261.72;5401683;32;34630;-61
2022/01/02 04:04:41;;;;;;;11.97;6.10;;;;;;;11.51;65.67;101262.81;5379117;32;34986;-67
2022/01/02 04:07:46;;;;;;;12.50;6.07;;;;;;;10.89;68.51;101264.59;5371829;32;34674;-61
2022/01/02 04:10:48;;;;;;;12.30;6.03;;;;;;;11.14;68.03;101255.09;5393800;32;33964;-67
2022/01/02 04:13:51;;;;;;;12.43;6.07;;;;;;;10.93;68.78;101267.06;5364817;32;32950;-68
2022/01/02 04:16:54;;;;;;;12.97;7.00;;;;;;;11.46;65.87;101255.97;5387704;32;32846;-68
2022/01/02 04:19:57;;;;;;;16.27;6.87;;;;;;;11.33;66.68;101256.34;5363298;32;32934;-68
2022/01/02 04:23:00;;;;;;;13.27;6.43;;;;;;;11.23;66.35;101265.38;5385234;32;33062;-63
2022/01/02 04:26:02;;;;;;;12.93;6.37;;;;;;;11.07;67.61;101264.94;5368565;32;32795;-66
2022/01/02 04:29:05;;;;;;;15.30;7.00;;;;;;;11.02;67.92;101279.12;5363004;32;34640;-66
2022/01/02 04:32:08;;;;;;;13.53;6.70;;;;;;;11.18;67.97;101277.78;5376605;32;32839;-61
2022/01/02 04:35:11;;;;;;;14.17;6.93;;;;;;;11.29;67.23;101275.75;5384222;32;34448;-67
2022/01/02 04:38:14;;;;;;;13.50;7.00;;;;;;;10.99;68.18;101279.19;5379010;32;33024;-67
2022/01/02 04:41:17;;;;;;;14.32;6.50;;;;;;;11.15;67.55;101274.41;5382728;32;34677;-61
2022/01/02 04:44:20;;;;;;;13.40;7.40;;;;;;;11.43;66.68;101271.84;5360487;32;34549;-61
2022/01/02 04:47:24;;;;;;;13.53;7.00;;;;;;;11.37;67.06;101265.84;5365355;32;35318;-61
2022/01/02 04:50:27;;;;;;;13.23;6.57;;;;;;;11.10;67.47;101274.53;5387382;32;35268;-61
2022/01/02 04:53:37;;;;;;;13.10;6.67;;;;;;;10.80;68.53;101277.03;5395023;32;35018;-61
2022/01/02 04:56:40;;;;;;;13.83;6.87;;;;;;;11.43;66.82;101269.22;5361017;32;34276;-61
2022/01/02 04:59:43;;;;;;;15.17;7.63;;;;;;;11.52;65.90;101268.94;5368920;32;34099;-61
2022/01/02 05:02:49;;;;;;;13.63;6.90;;;;;;;10.95;67.41;101274.91;5351944;32;33033;-67
2022/01/02 05:05:52;;;;;;;12.93;7.10;;;;;;;10.32;69.72;101273.87;5349060;32;34098;-67
2022/01/02 05:08:56;;;;;;;15.40;6.87;;;;;;;10.05;70.40;101278.00;5381877;32;34612;-67
2022/01/02 05:11:58;;;;;;;13.23;6.60;;;;;;;9.96;70.65;101270.31;5367391;32;34824;-69
2022/01/02 05:15:02;;;;;;;12.90;7.17;;;;;;;9.88;71.11;101267.84;5382285;32;33683;-61
2022/01/02 05:18:04;;;;;;;16.45;8.05;;;;;;;10.07;69.98;101263.06;5385084;32;34090;-67
2022/01/02 05:21:07;;;;;;;13.60;7.20;;;;;;;10.35;68.97;101257.16;5362783;32;34992;-61
2022/01/02 05:24:11;;;;;;;14.23;6.33;;;;;;;10.36;68.57;101254.50;5357677;32;35202;-61
2022/01/02 05:27:13;;;;;;;16.13;7.13;;;;;;;10.65;67.52;101260.81;5378695;32;34054;-60
2022/01/02 05:30:16;;;;;;;13.73;6.90;;;;;;;9.91;69.98;101261.66;5382630;32;34903;-65
2022/01/02 05:33:19;;;;;;;16.23;7.87;;;;;;;9.72;70.56;101262.09;5381852;32;34247;-61
2022/01/02 05:36:21;;;;;;;14.77;8.18;;;;;;;9.27;73.00;101263.87;5361793;32;35431;-61
2022/01/02 05:39:26;;;;;;;14.27;7.53;;;;;;;9.91;71.29;101257.28;5397975;32;34387;-68
2022/01/02 05:42:29;;;;;;;15.70;8.67;;;;;;;10.35;68.49;101257.16;5346185;32;35264;-61
2022/01/02 05:45:32;;;;;;;14.23;7.67;;;;;;;9.94;70.21;101257.22;5383632;32;32964;-66
2022/01/02 05:48:36;;;;;;;16.17;8.13;;;;;;;9.83;71.06;101255.72;5377520;32;34074;-61
2022/01/02 05:51:41;;;;;;;14.43;8.00;;;;;;;10.67;67.68;101259.88;5391931;32;34719;-61
2022/01/02 05:54:43;;;;;;;15.57;8.23;;;;;;;9.82;70.79;101257.50;5377893;32;34337;-60
2022/01/02 05:57:46;;;;;;;15.37;8.10;;;;;;;9.66;70.67;101254.34;5379366;32;34962;-61
2022/01/02 06:00:49;;;;;;;14.52;8.20;;;;;;;9.64;71.52;101248.25;5376735;32;34198;-66
2022/01/02 06:03:52;;;;;;;14.70;8.17;;;;;;;9.57;71.73;101245.78;5380456;32;34571;-61
2022/01/02 06:06:54;;;;;;;17.40;8.67;;;;;;;9.46;72.42;101252.12;5380722;32;34337;-62
2022/01/02 06:09:57;;;;;;;15.80;8.30;;;;;;;9.15;74.12;101254.53;5363609;32;34327;-66
2022/01/02 06:12:59;;;;;;;17.43;9.07;;;;;;;9.78;71.46;101251.44;5393509;32;33746;-66
2022/01/02 06:16:01;;;;;;;18.00;9.13;;;;;;;10.40;68.76;101250.06;5375884;32;34096;-66
2022/01/02 06:19:04;;;;;;;15.10;8.33;;;;;;;9.47;71.77;101247.75;5384329;32;34007;-61
2022/01/02 06:22:11;;;;;;;19.08;9.25;;;;;;;9.23;73.61;101236.00;5375217;32;33940;-61
2022/01/02 06:25:15;;;;;;;18.90;9.90;;;;;;;9.32;73.26;101250.69;5365659;32;35403;-62
2022/01/02 06:28:17;;;;;;;17.47;9.57;;;;;;;9.33;73.28;101250.63;5386716;32;34136;-62
2022/01/02 06:31:19;;;;;;;17.53;9.53;;;;;;;9.36;72.43;101244.50;5380994;32;34833;-61
2022/01/02 06:34:24;;;;;;;20.90;10.10;;;;;;;8.73;75.20;101248.31;5379206;32;33178;-66
2022/01/02 06:37:26;;;;;;;21.08;9.82;;;;;;;8.92;74.06;101249.69;5353849;32;33159;-66
2022/01/02 06:40:28;;;;;;;15.50;8.37;;;;;;;9.19;73.81;101248.28;5366925;32;33815;-61
2022/01/02 06:43:33;;;;;;;18.40;9.50;;;;;;;9.68;71.55;101251.69;5384153;32;35182;-66
2022/01/02 06:46:35;;;;;;;20.50;9.53;;;;;;;8.79;75.02;101256.06;5372669;32;34634;-67
2022/01/02 06:49:40;;;;;;;17.73;8.53;;;;;;;9.15;74.13;101253.66;5396688;32;33168;-61
2022/01/02 06:52:43;;;;;;;18.87;9.60;;;;;;;10.41;68.25;101247.37;5360860;32;35002;-60
2022/01/02 06:55:46;;;;;;;15.73;8.80;;;;;;;10.44;67.38;101247.31;5372490;32;34471;-62
2022/01/02 06:58:50;;;;;;;17.90;9.60;;;;;;;10.14;68.56;101250.66;5367646;32;34940;-60
2022/01/02 07:01:57;;;;;;;19.53;9.20;;;;;;;9.10;71.48;101260.75;5363896;32;33575;-61
2022/01/02 07:05:01;;;;;;;17.30;9.53;;;;;;;9.13;73.48;101260.66;5396276;32;34276;-67
2022/01/02 07:08:03;;;;;;;17.23;8.68;;;;;;;9.68;70.58;101255.16;5399192;32;34490;-67
2022/01/02 07:11:10;;;;;;;22.30;9.77;;;;;;;9.15;72.62;101270.25;5390292;32;33014;-66
2022/01/02 07:14:14;;;;;;;19.23;10.07;;;;;;;8.92;73.94;101264.56;5366237;32;33797;-68
2022/01/02 07:17:18;;;;;;;18.57;9.43;;;;;;;9.48;72.02;101267.84;5365414;32;34157;-62
2022/01/02 07:20:22;;;;;;;16.83;8.80;;;;;;;9.76;69.92;101262.88;5366674;32;35120;-62
2022/01/02 07:23:25;;;;;;;17.73;9.43;;;;;;;9.87;69.05;101263.50;5388411;32;33110;-67
2022/01/02 07:26:27;;;;;;;16.80;8.97;;;;;;;9.35;71.24;101271.63;5388062;32;33951;-67
2022/01/02 07:29:29;;;;;;;15.87;8.80;;;;;;;9.43;70.85;101264.44;5364614;32;34896;-63
2022/01/02 07:32:33;;;;;;;18.60;9.73;;;;;;;9.39;70.19;101257.53;5377577;32;34748;-61
2022/01/02 07:35:36;;;;;;;18.15;8.85;;;;;;;9.79;68.76;101257.56;5361504;32;34765;-67
2022/01/02 07:39:00;;;;;;;17.87;9.53;;;;;;;9.66;70.32;101261.31;5385521;32;34764;-62
2022/01/02 07:42:04;;;;;;;17.95;10.13;;;;;;;9.42;70.46;101255.72;5367374;32;33932;-61
2022/01/02 07:45:09;;;;;;;18.53;9.23;;;;;;;8.36;75.29;101261.16;5376735;32;34886;-66
2022/01/02 07:48:17;;;;;;;21.93;12.50;;;;;;;8.79;74.00;101257.81;5396485;32;35171;-68
2022/01/02 07:51:25;;;;;;;;;;;;;;;9.01;72.76;101259.12;5328356;33;32841;-62
2022/01/02 07:54:28;;;;;;;18.27;10.57;;;;;;;9.30;72.24;101250.72;5361463;33;34011;-61
2022/01/02 07:57:32;;;;;;;26.67;15.20;;;;;;;8.93;71.91;101245.31;5341549;33;35047;-61
2022/01/02 08:00:37;;;;;;;21.47;10.63;;;;;;;8.38;74.39;101255.00;5339675;33;33227;-61
2022/01/02 08:03:41;;;;;;;20.00;11.07;;;;;;;8.67;74.70;101254.50;5336241;33;34524;-61
2022/01/02 08:06:45;;;;;;;25.93;14.27;;;;;;;8.85;73.99;101249.84;5344591;33;34851;-61
2022/01/02 08:09:49;;;;;;;19.02;10.55;;;;;;;8.52;74.32;101236.44;5337543;33;34478;-61
2022/01/02 08:12:54;;;;;;;18.77;9.82;;;;;;;9.24;72.28;101235.09;5339452;33;35224;-61
2022/01/02 08:15:59;;;;;;;19.60;10.87;;;;;;;9.70;69.82;101224.50;5327097;33;34243;-61
2022/01/02 08:19:05;;;;;;;;;;;;;;;9.87;67.67;101225.88;5363073;33;34934;-61
2022/01/02 08:22:13;;;;;;;20.70;10.77;;;;;;;10.17;66.21;101222.53;5350102;32;34415;-61
2022/01/02 08:25:16;;;;;;;17.40;10.00;;;;;;;9.75;67.94;101214.75;5323760;33;32823;-68
2022/01/02 08:28:19;;;;;;;19.20;11.17;;;;;;;8.81;71.58;101233.28;5340541;33;34661;-66
2022/01/02 08:31:21;;;;;;;19.93;11.17;;;;;;;8.62;73.48;101221.41;5345496;33;33604;-61
2022/01/02 08:34:24;;;;;;;23.17;11.35;;;;;;;8.22;75.17;101229.06;5339687;33;34332;-63
2022/01/02 08:37:27;;;;;;;20.07;11.47;;;;;;;9.20;72.41;101222.94;5332168;33;34642;-68
2022/01/02 08:40:30;;;;;;;20.43;11.33;;;;;;;9.09;71.19;101214.44;5333660;33;32856;-61
2022/01/02 08:43:34;;;;;;;18.75;10.68;;;;;;;8.83;73.15;101222.81;5325499;33;34387;-68
2022/01/02 08:46:38;;;;;;;17.73;10.97;;;;;;;9.16;71.78;101219.53;5345695;33;34520;-66
2022/01/02 08:49:42;;;;;;;19.90;11.03;;;;;;;9.58;71.11;101213.41;5344047;32;33934;-66
2022/01/02 08:52:45;;;;;;;20.20;11.03;;;;;;;9.33;72.18;101200.78;5344611;33;32485;-61
2022/01/02 08:55:48;;;;;;;20.48;11.20;;;;;;;9.48;70.65;101205.75;5329833;33;33903;-66
2022/01/02 08:58:50;;;;;;;19.57;10.47;;;;;;;9.74;69.53;101206.94;5356530;33;34473;-61
2022/01/02 09:01:53;;;;;;;20.03;10.83;;;;;;;9.35;71.61;101203.41;5386746;32;35690;-60
2022/01/02 09:04:57;;;;;;;18.90;11.12;;;;;;;9.85;70.26;101191.75;5387781;32;34074;-61
2022/01/02 09:08:00;;;;;;;;;;;;;;;9.84;69.47;101194.44;5380404;32;34068;-67
2022/01/02 09:11:02;;;;;;;19.50;10.87;;;;;;;10.76;66.10;101186.03;5380204;32;33384;-61
2022/01/02 09:14:05;;;;;;;18.00;10.43;;;;;;;10.52;67.20;101194.56;5366800;32;35450;-66
2022/01/02 09:17:09;;;;;;;20.23;12.27;;;;;;;10.37;66.56;101195.81;5362082;32;37047;-61
2022/01/02 09:20:13;;;;;;;21.67;11.27;;;;;;;10.15;68.27;101195.44;5365338;32;34789;-61
2022/01/02 09:23:15;;;;;;;;;;;;;;;11.07;65.09;101178.09;5379773;32;33270;-67
2022/01/02 09:26:18;;;;;;;21.47;11.27;;;;;;;11.09;65.26;101185.97;5382251;32;34245;-62
2022/01/02 09:29:21;;;;;;;21.23;11.50;;;;;;;11.12;65.15;101181.47;5383210;32;34202;-67
2022/01/02 09:32:26;;;;;;;17.40;10.65;;;;;;;11.02;65.01;101187.94;5370159;32;34665;-62
2022/01/02 09:35:29;;;;;;;19.20;10.87;;;;;;;11.76;62.42;101191.84;5361831;32;34938;-66
2022/01/02 09:38:32;;;;;;;17.48;11.02;;;;;;;12.00;61.33;101190.25;5357057;32;188111;-65
2022/01/02 09:41:35;;;;;;;16.67;10.55;;;;;;;12.25;61.04;101186.81;5380187;32;32987;-67
2022/01/02 09:44:39;;;;;;;17.85;10.77;;;;;;;12.55;59.35;101175.22;5367408;32;35262;-67
2022/01/02 09:47:46;;;;;;;20.80;11.00;;;;;;;12.27;60.27;101159.50;5382645;32;33558;-61
2022/01/02 09:50:50;;;;;;;22.47;10.90;;;;;;;11.88;61.08;101149.37;5385781;32;35084;-62
2022/01/02 09:53:54;;;;;;;19.83;10.77;;;;;;;11.90;61.08;101142.25;5364006;32;34025;-66
2022/01/02 09:56:56;;;;;;;16.97;9.93;;;;;;;12.85;58.32;101132.84;5379153;32;34694;-62
2022/01/02 10:00:00;;;;;;;20.77;10.60;;;;;;;12.20;59.88;101129.00;5394451;32;32959;-62
2022/01/02 10:03:09;;;;;;;19.03;11.80;;;;;;;13.07;57.50;101110.00;5372638;32;34201;-62
2022/01/02 10:06:13;;;;;;;22.00;11.13;;;;;;;13.15;57.27;101110.59;5363935;32;34858;-67
2022/01/02 10:09:32;;;;;;;20.57;11.30;;;;;;;11.58;62.43;101119.56;5387153;32;35264;-68
2022/01/02 10:12:37;;;;;;;18.47;11.53;;;;;;;13.18;57.11;101109.62;5379523;32;34826;-62
2022/01/02 10:15:42;;;;;;;19.50;10.50;;;;;;;13.31;56.58;101104.75;5365255;32;35086;-66
2022/01/02 10:18:45;;;;;;;19.70;11.00;;;;;;;12.91;57.95;101100.97;5389453;32;33989;-61
2022/01/02 10:22:00;;;;;;;20.60;11.50;;;;;;;13.55;55.88;101111.72;5384745;32;34934;-61
2022/01/02 10:25:03;;;;;;;19.27;11.47;;;;;;;13.04;56.74;101112.78;5362299;32;33289;-68
2022/01/02 10:28:26;;;;;;;17.85;11.35;;;;;;;13.64;55.42;101103.41;5379708;32;34746;-61
2022/01/02 10:31:34;;;;;;;19.45;11.35;;;;;;;12.22;59.83;101100.81;5389054;32;34818;-68
2022/01/02 10:34:39;;;;;;;19.10;11.23;;;;;;;13.12;57.65;101091.37;5386415;32;34766;-62
2022/01/02 10:37:57;;;;;;;18.63;11.83;;;;;;;13.31;55.95;101078.34;5386523;32;33992;-63
2022/01/02 10:41:00;;;;;;;18.87;11.37;;;;;;;13.69;55.52;101053.03;5380595;32;34736;-61
2022/01/02 10:44:23;;;;;;;20.80;11.30;;;;;;;13.55;55.43;101046.53;5364853;32;33934;-67
2022/01/02 10:47:26;;;;;;;22.98;11.48;;;;;;;13.31;57.21;101039.63;5365127;32;34171;-62
2022/01/02 10:50:29;;;;;;;22.52;12.93;;;;;;;12.97;57.73;101047.97;5377431;32;34394;-62
2022/01/02 10:53:36;;;;;;;20.47;11.23;;;;;;;13.42;56.41;101053.25;5395973;32;34580;-67
2022/01/02 10:56:48;;;;;;;22.33;11.17;;;;;;;14.24;53.96;101035.69;5381194;32;34621;-62
2022/01/02 11:00:02;;;;;;;17.03;9.63;;;;;;;13.82;54.48;101033.13;5370835;32;33074;-61
2022/01/02 11:03:07;;;;;;;18.13;9.60;;;;;;;13.95;53.84;101015.81;5379375;32;32699;-67
2022/01/02 11:06:13;;;;;;;19.90;8.90;;;;;;;13.29;55.31;101020.34;5395544;32;32841;-61
2022/01/02 11:09:17;;;;;;;15.77;8.33;;;;;;;13.22;55.38;101009.16;5359915;32;35004;-62
2022/01/02 11:12:20;;;;;;;16.17;8.17;;;;;;;14.24;52.95;101003.97;5365082;32;32226;-68
2022/01/02 11:15:26;;;;;;;17.43;8.90;;;;;;;14.49;51.72;100998.47;5372098;32;33538;-63
2022/01/02 11:18:35;;;;;;;13.30;7.97;;;;;;;13.88;53.21;100998.50;5376276;32;33927;-62
2022/01/02 11:21:43;;;;;;;16.47;7.30;;;;;;;14.29;51.67;100993.16;5367201;32;35189;-62
2022/01/02 11:24:55;;;;;;;14.20;8.07;;;;;;;13.95;52.69;100985.87;5384751;32;34248;-62
2022/01/02 11:28:00;;;;;;;13.53;7.53;;;;;;;14.53;51.26;100978.88;5361197;32;33059;-66
2022/01/02 11:31:07;;;;;;;13.27;7.20;;;;;;;12.81;56.76;100988.78;5388339;32;33365;-61
2022/01/02 11:34:26;;;;;;;15.43;7.63;;;;;;;14.30;52.42;100973.75;5374570;32;34158;-66
2022/01/02 11:37:32;;;;;;;17.03;8.13;;;;;;;14.19;52.54;100968.94;5363919;32;34123;-67
2022/01/02 11:41:05;;;;;;;14.07;7.13;;;;;;;13.29;55.54;100975.47;5378730;32;33082;-61
2022/01/02 11:44:14;;;;;;;13.70;6.87;;;;;;;13.90;53.57;100954.38;5359896;32;33319;-66
2022/01/02 11:47:38;;;;;;;13.37;6.30;;;;;;;14.95;50.34;100953.13;5365774;32;33933;-62
2022/01/02 11:50:45;;;;;;;14.67;7.50;;;;;;;14.68;51.28;100939.41;5379422;32;34477;-61
2022/01/02 11:53:54;;;;;;;14.87;7.87;;;;;;;15.04;50.01;100942.94;5389756;32;34594;-62
2022/01/02 11:57:18;;;;;;;13.27;7.27;;;;;;;13.49;54.09;100937.66;5386317;32;34327;-67
2022/01/02 12:00:47;;;;;;;13.82;7.65;;;;;;;15.03;50.30;100919.19;5401310;32;34259;-67
2022/01/02 12:03:50;;;;;;;15.03;7.70;;;;;;;15.92;47.78;100910.25;5362305;32;33967;-67
2022/01/02 12:06:53;;;;;;;13.20;7.75;;;;;;;16.00;47.40;100908.03;5364082;32;35419;-68
2022/01/02 12:10:20;;;;;;;14.45;7.75;;;;;;;15.74;47.68;100906.78;5362732;32;33073;-62
2022/01/02 12:13:35;;;;;;;14.33;7.87;;;;;;;15.61;48.65;100909.16;5382193;32;34282;-61
2022/01/02 12:16:43;;;;;;;14.30;6.93;;;;;;;16.60;46.13;100905.63;5372218;32;34836;-68
2022/01/02 12:20:01;;;;;;;17.50;7.53;;;;;;;16.72;45.64;100902.31;5378061;32;34140;-68
2022/01/02 12:23:08;;;;;;;11.10;6.37;;;;;;;16.53;46.14;100891.00;5392617;32;33860;-68
2022/01/02 12:26:28;;;;;;;11.87;6.60;;;;;;;17.36;44.35;100876.50;5359975;32;34054;-68
2022/01/02 12:29:38;;;;;;;12.43;6.63;;;;;;;16.83;44.66;100867.22;5373094;32;33684;-66
2022/01/02 12:32:58;;;;;;;11.90;6.63;;;;;;;17.89;42.89;100855.59;5353488;32;33251;-61
2022/01/02 12:36:10;;;;;;;10.97;5.77;;;;;;;18.36;41.67;100842.84;5372894;32;32962;-66
2022/01/02 12:39:25;;;;;;;12.20;5.80;;;;;;;17.56;43.17;100856.69;5389385;32;32921;-66
2022/01/02 12:42:29;;;;;;;8.70;4.40;;;;;;;16.54;45.55;100858.22;5379654;32;35699;-66
2022/01/02 12:45:31;;;;;;;10.35;4.93;;;;;;;16.21;45.67;100866.25;5385092;32;33256;-68
2022/01/02 12:48:36;;;;;;;12.30;4.73;;;;;;;17.14;43.81;100854.81;5385716;32;35190;-62
2022/01/02 12:51:47;;;;;;;10.37;5.07;;;;;;;16.02;46.64;100863.75;5356321;32;34159;-61
2022/01/02 12:54:50;;;;;;;10.43;5.03;;;;;;;16.32;46.53;100855.91;5384266;32;34256;-61
2022/01/02 12:58:06;;;;;;;12.83;5.47;;;;;;;16.71;45.56;100844.88;5384912;32;34613;-67
2022/01/02 13:01:11;;;;;;;11.83;5.60;;;;;;;16.33;46.67;100849.66;5379209;32;33475;-62
2022/01/02 13:04:15;;;;;;;10.97;6.23;;;;;;;15.69;47.89;100856.66;5387992;32;32686;-61
2022/01/02 13:07:22;;;;;;;9.83;5.10;;;;;;;16.17;47.12;100851.47;5361864;32;32899;-67
2022/01/02 13:10:26;;;;;;;12.43;5.40;;;;;;;15.05;50.27;100848.50;5380022;32;33113;-61
2022/01/02 13:13:31;;;;;;;10.55;5.40;;;;;;;15.08;50.56;100848.34;5401149;32;33159;-66
2022/01/02 13:16:35;;;;;;;9.57;4.90;;;;;;;14.79;51.59;100855.94;5378126;32;34912;-62
2022/01/02 13:19:42;;;;;;;10.27;5.15;;;;;;;15.02;50.94;100848.66;5364719;32;32897;-67
2022/01/02 13:22:53;;;;;;;9.83;4.90;;;;;;;15.71;49.06;100832.72;5400990;32;35229;-67
2022/01/02 13:26:18;;;;;;;12.07;5.43;;;;;;;14.82;51.43;100833.78;5380944;32;34609;-61
2022/01/02 13:29:26;;;;;;;11.77;5.80;;;;;;;14.67;52.43;100837.16;5376864;32;33242;-61
2022/01/02 13:32:37;;;;;;;13.10;6.23;;;;;;;14.12;54.09;100834.50;5365021;32;34872;-68
2022/01/02 13:35:39;;;;;;;12.80;6.23;;;;;;;14.41;53.47;100826.03;5360107;32;35499;-68
2022/01/02 13:38:52;;;;;;;14.23;6.43;;;;;;;15.02;51.72;100828.34;5394110;32;34688;-68
2022/01/02 13:41:55;;;;;;;16.83;7.55;;;;;;;14.40;53.66;100821.66;5364090;32;34532;-61
2022/01/02 13:45:16;;;;;;;14.20;6.70;;;;;;;14.22;54.20;100826.03;5362225;32;34500;-68
2022/01/02 13:48:33;;;;;;;15.23;7.73;;;;;;;14.62;53.12;100814.47;5391640;32;35403;-62
2022/01/02 13:51:36;;;;;;;16.83;7.80;;;;;;;14.38;54.14;100804.16;5358543;32;35285;-67
2022/01/02 13:54:38;;;;;;;16.90;8.13;;;;;;;14.42;54.18;100805.72;5383362;32;35512;-69
2022/01/02 13:57:40;;;;;;;22.03;8.97;;;;;;;14.60;53.79;100803.06;5369605;32;34520;-67
2022/01/02 14:00:57;;;;;;;16.57;8.07;;;;;;;14.38;54.48;100810.31;5367281;32;34385;-63
2022/01/02 14:04:08;;;;;;;16.83;6.80;;;;;;;14.70;53.73;100811.41;5378817;32;34242;-68
2022/01/02 14:07:11;;;;;;;15.70;8.13;;;;;;;15.35;51.99;100803.72;5382862;32;32693;-67
2022/01/02 14:10:18;;;;;;;13.93;7.37;;;;;;;15.04;52.88;100804.44;5372765;32;33147;-61
2022/01/02 14:13:22;;;;;;;;;;;;;;;15.21;52.84;100801.78;5377244;32;34747;-68
2022/01/02 14:19:43;;;;;;;13.53;6.17;;;;;;;15.11;53.42;100780.22;5372646;32;33293;-61
2022/01/02 14:22:47;;;;;;;12.83;6.97;;;;;;;14.25;56.11;100790.69;5384911;32;35068;-67